• Join FlightAware (Why Join?)
  • Login
  • US Flag 
04:50PM EST


 

Airport Tracker/Info


-or-


 

Live Flight TrackerFlight Track Log ✈ N447ND ✈ 19-Jun-2013 ✈ KMLB - KDAB

Flight Track Log - Related Links

Times and Time Zones

All times are in EDT time to prevent confusion due to time zone crossing. See the N447ND flight status page for this flight to view local times or setup timezone preferences in your user account.

Time Position Orientation Groundspeed Altitude Reporting Facility
EDT Latitude Longitude Course Direction KTS MPH feet Rate Location/Type
09:26AM 28.2500 -80.6833 336° Northwest 107 123 5,100  Level Orlando TRACON
09:27AM 28.2833 -80.7000 336° Northwest 109 125 5,100  Level Orlando TRACON
09:28AM 28.3000 -80.7167 319° Northwest 103 119 5,100  Level Orlando TRACON
09:29AM 28.3333 -80.7167 360° North 101 116 5,100  Level Orlando TRACON
09:30AM 28.3667 -80.7333 336° Northwest 111 128 5,100  Level Orlando TRACON
09:31AM 28.4000 -80.7333 360° North 104 120 5,100  Level Orlando TRACON
09:32AM 28.4167 -80.7500 319° Northwest 110 127 5,100  Level Orlando TRACON
09:33AM 28.4500 -80.7667 336° Northwest 106 122 5,100  Level Orlando TRACON
09:34AM 28.4833 -80.7667 360° North 110 127 5,100  Level Orlando TRACON
09:35AM 28.5167 -80.7833 336° Northwest 104 120 5,100 -60 Level Orlando TRACON
09:36AM 28.5333 -80.8000 319° Northwest 104 120 5,000  Descending Orlando TRACON
09:37AM 28.5667 -80.8000 360° North 102 117 5,100  Climbing Orlando TRACON
09:38AM 28.5833 -80.8167 319° Northwest 102 117 5,100  Level Orlando TRACON
09:39AM 28.6167 -80.8333 336° Northwest 100 115 5,100 -60 Level Orlando TRACON
09:40AM 28.6500 -80.8333 360° North 101 116 5,000  Descending Orlando TRACON
09:41AM 28.6667 -80.8500 319° Northwest 101 116 5,100  Climbing Orlando TRACON
09:42AM 28.7000 -80.8500 360° North 100 115 5,100  Level Orlando TRACON
09:43AM 28.7167 -80.8667 319° Northwest 104 120 5,100  Level Orlando TRACON
09:44AM 28.7500 -80.8833 336° Northwest 102 117 5,100  Level Orlando TRACON
09:45AM 28.7667 -80.9000 319° Northwest 100 115 5,100 -60 Level Orlando TRACON
09:48AM 28.8319 -80.9325 336° Northwest 101 116 5,000  Descending Jacksonville Center
09:49AM 28.8553 -80.9464 332° Northwest 98 113 5,100  Climbing Jacksonville Center
09:50AM 28.8803 -80.9578 338° Northwest 96 110 5,100  Level Jacksonville Center
09:51AM 28.9075 -80.9642 348° North 102 117 5,100  Level Jacksonville Center
09:52AM 28.9350 -80.9733 344° North 98 113 5,200 -300 Climbing Jacksonville Center
09:53AM 28.9747 -80.9797 352° North 112 129 4,500 -540 Descending Jacksonville Center
09:54AM 28.9931 -80.9650 35° Northeast 110 127 4,100 -240 Descending Jacksonville Center
09:55AM 29.0200 -80.9478 29° Northeast 108 124 4,100  Level Jacksonville Center
09:56AM 29.0447 -80.9308 31° Northeast 110 127 4,100 -240 Level Jacksonville Center
09:57AM 29.0739 -80.9111 31° Northeast 115 132 3,700 -480 Descending Jacksonville Center
09:58AM 29.1006 -80.8964 26° Northeast 110 127 3,200 -540 Descending Jacksonville Center
09:59AM 29.1339 -80.8886 12° North 104 120 2,600 -420 Descending Jacksonville Center
10:00AM 29.1672 -80.8783 15° North 105 121 2,300 -300 Descending Jacksonville Center
10:01AM 29.1942 -80.8731 10° North 106 122 2,000 -360 Descending Jacksonville Center
10:02AM 29.2194 -80.8797 347° North 96 110 1,700 -180 Descending Jacksonville Center
10:03AM 29.2403 -80.8864 344° North 90 104 1,700  Level Jacksonville Center
10:04AM 29.2386 -80.9103 265° West 84 97 1,700  Level Jacksonville Center
10:05AM 29.2286 -80.9367 247° West 80 92 1,700  Level Jacksonville Center
10:06AM 29.2186 -80.9606 244° Southwest 83 96 1,700 -240 Level Jacksonville Center
10:07AM 29.2106 -80.9869 251° West 94 108 1,300 -480 Descending Jacksonville Center
10:08AM 29.2006 -81.0133 247° West 86 99 800 -480 Descending Jacksonville Center
10:09AM 29.1906 -81.0350 242° Southwest 82 94 400 -480 Descending Jacksonville Center
10:11AM 29.1667 -81.0500 270° West  Level FlightAware Approximate
10:18AM 29.1799 -81.0581 270° West  Level Estimated
10:19AM 29.1799 -81.0581 270° West  Level Estimated
10:20AM 29.1799 -81.0581 270° West  Level Estimated